sensor_id;sensor_type;location;lat;lon;timestamp;P1;durP1;ratioP1;P2;durP2;ratioP2
85314;SDS011;75718;50.886;11.656;2024-03-06T00:01:47;49.67;;;23.73;;
85314;SDS011;75718;50.886;11.656;2024-03-06T00:04:12;54.03;;;25.40;;
85314;SDS011;75718;50.886;11.656;2024-03-06T00:06:38;51.80;;;25.67;;
85314;SDS011;75718;50.886;11.656;2024-03-06T00:09:03;50.50;;;26.00;;
85314;SDS011;75718;50.886;11.656;2024-03-06T00:11:28;51.23;;;24.50;;
85314;SDS011;75718;50.886;11.656;2024-03-06T00:13:54;51.95;;;24.30;;
85314;SDS011;75718;50.886;11.656;2024-03-06T00:16:19;53.13;;;27.10;;
85314;SDS011;75718;50.886;11.656;2024-03-06T00:18:45;51.60;;;23.20;;
85314;SDS011;75718;50.886;11.656;2024-03-06T00:21:10;49.83;;;24.10;;
85314;SDS011;75718;50.886;11.656;2024-03-06T00:23:35;47.13;;;25.80;;
85314;SDS011;75718;50.886;11.656;2024-03-06T00:26:02;45.75;;;23.90;;
85314;SDS011;75718;50.886;11.656;2024-03-06T00:28:28;50.20;;;26.50;;
85314;SDS011;75718;50.886;11.656;2024-03-06T00:30:53;50.57;;;25.67;;
85314;SDS011;75718;50.886;11.656;2024-03-06T00:33:18;45.57;;;23.00;;
85314;SDS011;75718;50.886;11.656;2024-03-06T00:35:43;50.67;;;24.17;;
85314;SDS011;75718;50.886;11.656;2024-03-06T00:38:09;49.67;;;23.43;;
85314;SDS011;75718;50.886;11.656;2024-03-06T00:40:34;48.17;;;23.77;;
85314;SDS011;75718;50.886;11.656;2024-03-06T00:42:59;46.85;;;23.60;;
85314;SDS011;75718;50.886;11.656;2024-03-06T00:45:24;50.38;;;24.90;;
85314;SDS011;75718;50.886;11.656;2024-03-06T00:47:50;53.70;;;26.90;;
85314;SDS011;75718;50.886;11.656;2024-03-06T00:50:15;51.00;;;24.87;;
85314;SDS011;75718;50.886;11.656;2024-03-06T00:52:42;47.13;;;24.77;;
85314;SDS011;75718;50.886;11.656;2024-03-06T00:55:08;52.40;;;25.27;;
85314;SDS011;75718;50.886;11.656;2024-03-06T00:57:34;43.88;;;22.52;;
85314;SDS011;75718;50.886;11.656;2024-03-06T01:00:00;51.47;;;25.27;;
85314;SDS011;75718;50.886;11.656;2024-03-06T01:02:25;47.07;;;22.73;;
85314;SDS011;75718;50.886;11.656;2024-03-06T01:04:50;49.13;;;24.23;;
85314;SDS011;75718;50.886;11.656;2024-03-06T01:07:16;45.57;;;21.43;;
85314;SDS011;75718;50.886;11.656;2024-03-06T01:09:41;47.53;;;24.80;;
85314;SDS011;75718;50.886;11.656;2024-03-06T01:12:06;44.10;;;23.70;;
85314;SDS011;75718;50.886;11.656;2024-03-06T01:14:31;52.33;;;23.50;;
85314;SDS011;75718;50.886;11.656;2024-03-06T01:16:57;38.92;;;21.67;;
85314;SDS011;75718;50.886;11.656;2024-03-06T01:19:22;44.87;;;22.00;;
85314;SDS011;75718;50.886;11.656;2024-03-06T01:21:48;42.30;;;22.50;;
85314;SDS011;75718;50.886;11.656;2024-03-06T01:24:13;46.90;;;23.50;;
85314;SDS011;75718;50.886;11.656;2024-03-06T01:26:39;36.45;;;21.33;;
85314;SDS011;75718;50.886;11.656;2024-03-06T01:29:05;44.60;;;21.52;;
85314;SDS011;75718;50.886;11.656;2024-03-06T01:31:30;44.08;;;23.83;;
85314;SDS011;75718;50.886;11.656;2024-03-06T01:33:56;46.70;;;26.20;;
85314;SDS011;75718;50.886;11.656;2024-03-06T01:36:21;43.67;;;22.80;;
85314;SDS011;75718;50.886;11.656;2024-03-06T01:38:46;47.67;;;23.07;;
85314;SDS011;75718;50.886;11.656;2024-03-06T01:41:11;44.60;;;22.67;;
85314;SDS011;75718;50.886;11.656;2024-03-06T01:43:37;46.13;;;23.20;;
85314;SDS011;75718;50.886;11.656;2024-03-06T01:46:06;48.22;;;23.92;;
85314;SDS011;75718;50.886;11.656;2024-03-06T01:48:31;43.67;;;19.95;;
85314;SDS011;75718;50.886;11.656;2024-03-06T01:50:58;43.45;;;21.05;;
85314;SDS011;75718;50.886;11.656;2024-03-06T01:53:27;41.70;;;21.67;;
85314;SDS011;75718;50.886;11.656;2024-03-06T01:55:55;36.75;;;19.75;;
85314;SDS011;75718;50.886;11.656;2024-03-06T01:58:21;36.33;;;19.15;;
85314;SDS011;75718;50.886;11.656;2024-03-06T02:00:48;42.67;;;19.23;;
85314;SDS011;75718;50.886;11.656;2024-03-06T02:03:14;41.55;;;20.17;;
85314;SDS011;75718;50.886;11.656;2024-03-06T02:05:40;39.15;;;20.92;;
85314;SDS011;75718;50.886;11.656;2024-03-06T02:08:05;43.78;;;22.30;;
85314;SDS011;75718;50.886;11.656;2024-03-06T02:10:32;41.65;;;22.50;;
85314;SDS011;75718;50.886;11.656;2024-03-06T02:12:59;41.65;;;20.63;;
85314;SDS011;75718;50.886;11.656;2024-03-06T02:15:24;43.90;;;21.63;;
85314;SDS011;75718;50.886;11.656;2024-03-06T02:17:49;36.90;;;21.13;;
85314;SDS011;75718;50.886;11.656;2024-03-06T02:20:15;38.70;;;21.50;;
85314;SDS011;75718;50.886;11.656;2024-03-06T02:22:41;48.63;;;23.30;;
85314;SDS011;75718;50.886;11.656;2024-03-06T02:25:06;42.00;;;21.67;;
85314;SDS011;75718;50.886;11.656;2024-03-06T02:27:32;42.78;;;20.48;;
85314;SDS011;75718;50.886;11.656;2024-03-06T02:29:58;40.83;;;20.67;;
85314;SDS011;75718;50.886;11.656;2024-03-06T02:32:23;42.45;;;21.45;;
85314;SDS011;75718;50.886;11.656;2024-03-06T02:34:50;44.75;;;22.30;;
85314;SDS011;75718;50.886;11.656;2024-03-06T02:37:15;48.08;;;21.40;;
85314;SDS011;75718;50.886;11.656;2024-03-06T02:39:41;37.67;;;21.35;;
85314;SDS011;75718;50.886;11.656;2024-03-06T02:42:06;37.90;;;20.20;;
85314;SDS011;75718;50.886;11.656;2024-03-06T02:44:32;43.03;;;22.52;;
85314;SDS011;75718;50.886;11.656;2024-03-06T02:46:57;41.85;;;20.40;;
85314;SDS011;75718;50.886;11.656;2024-03-06T02:49:23;38.92;;;20.92;;
85314;SDS011;75718;50.886;11.656;2024-03-06T02:51:48;40.53;;;21.53;;
85314;SDS011;75718;50.886;11.656;2024-03-06T02:54:13;36.17;;;18.90;;
85314;SDS011;75718;50.886;11.656;2024-03-06T02:56:39;38.15;;;18.80;;
85314;SDS011;75718;50.886;11.656;2024-03-06T02:59:04;41.00;;;19.70;;
85314;SDS011;75718;50.886;11.656;2024-03-06T03:01:30;38.58;;;19.77;;
85314;SDS011;75718;50.886;11.656;2024-03-06T03:03:56;39.47;;;20.58;;
85314;SDS011;75718;50.886;11.656;2024-03-06T03:06:22;39.40;;;17.92;;
85314;SDS011;75718;50.886;11.656;2024-03-06T03:08:50;32.08;;;19.35;;
85314;SDS011;75718;50.886;11.656;2024-03-06T03:11:16;31.17;;;16.42;;
85314;SDS011;75718;50.886;11.656;2024-03-06T03:13:41;35.33;;;17.50;;
85314;SDS011;75718;50.886;11.656;2024-03-06T03:16:07;33.90;;;18.25;;
85314;SDS011;75718;50.886;11.656;2024-03-06T03:18:39;29.58;;;17.08;;
85314;SDS011;75718;50.886;11.656;2024-03-06T03:21:08;32.40;;;16.97;;
85314;SDS011;75718;50.886;11.656;2024-03-06T03:23:33;34.35;;;18.35;;
85314;SDS011;75718;50.886;11.656;2024-03-06T03:26:00;33.92;;;18.17;;
85314;SDS011;75718;50.886;11.656;2024-03-06T03:28:26;31.53;;;17.20;;
85314;SDS011;75718;50.886;11.656;2024-03-06T03:30:52;30.83;;;19.95;;
85314;SDS011;75718;50.886;11.656;2024-03-06T03:33:17;32.70;;;17.53;;
85314;SDS011;75718;50.886;11.656;2024-03-06T03:35:42;33.43;;;18.50;;
85314;SDS011;75718;50.886;11.656;2024-03-06T03:38:07;34.60;;;18.08;;
85314;SDS011;75718;50.886;11.656;2024-03-06T03:40:33;38.70;;;18.93;;
85314;SDS011;75718;50.886;11.656;2024-03-06T03:42:58;32.40;;;17.87;;
85314;SDS011;75718;50.886;11.656;2024-03-06T03:45:24;37.55;;;18.40;;
85314;SDS011;75718;50.886;11.656;2024-03-06T03:47:49;42.07;;;19.17;;
85314;SDS011;75718;50.886;11.656;2024-03-06T03:50:14;35.10;;;18.63;;
85314;SDS011;75718;50.886;11.656;2024-03-06T03:52:39;33.28;;;18.23;;
85314;SDS011;75718;50.886;11.656;2024-03-06T03:55:07;32.70;;;18.20;;
85314;SDS011;75718;50.886;11.656;2024-03-06T03:57:32;33.22;;;17.75;;
85314;SDS011;75718;50.886;11.656;2024-03-06T03:59:58;33.03;;;17.53;;
85314;SDS011;75718;50.886;11.656;2024-03-06T04:02:23;33.07;;;17.40;;
85314;SDS011;75718;50.886;11.656;2024-03-06T04:04:48;30.33;;;17.37;;
85314;SDS011;75718;50.886;11.656;2024-03-06T04:07:13;34.63;;;17.70;;
85314;SDS011;75718;50.886;11.656;2024-03-06T04:09:41;32.92;;;18.77;;
85314;SDS011;75718;50.886;11.656;2024-03-06T04:12:06;38.37;;;19.27;;
85314;SDS011;75718;50.886;11.656;2024-03-06T04:14:31;38.53;;;20.30;;
85314;SDS011;75718;50.886;11.656;2024-03-06T04:16:56;34.13;;;18.27;;
85314;SDS011;75718;50.886;11.656;2024-03-06T04:19:22;35.23;;;19.07;;
85314;SDS011;75718;50.886;11.656;2024-03-06T04:21:47;36.15;;;18.00;;
85314;SDS011;75718;50.886;11.656;2024-03-06T04:24:12;34.73;;;18.07;;
85314;SDS011;75718;50.886;11.656;2024-03-06T04:26:38;35.87;;;18.53;;
85314;SDS011;75718;50.886;11.656;2024-03-06T04:29:03;34.63;;;18.73;;
85314;SDS011;75718;50.886;11.656;2024-03-06T04:31:28;33.13;;;19.02;;
85314;SDS011;75718;50.886;11.656;2024-03-06T04:33:54;38.38;;;18.50;;
85314;SDS011;75718;50.886;11.656;2024-03-06T04:36:19;38.33;;;19.23;;
85314;SDS011;75718;50.886;11.656;2024-03-06T04:38:45;36.13;;;18.08;;
85314;SDS011;75718;50.886;11.656;2024-03-06T04:41:10;38.20;;;19.40;;
85314;SDS011;75718;50.886;11.656;2024-03-06T04:43:35;39.15;;;20.40;;
85314;SDS011;75718;50.886;11.656;2024-03-06T04:46:01;40.40;;;20.10;;
85314;SDS011;75718;50.886;11.656;2024-03-06T04:48:26;38.05;;;18.77;;
85314;SDS011;75718;50.886;11.656;2024-03-06T04:50:52;40.00;;;19.67;;
85314;SDS011;75718;50.886;11.656;2024-03-06T04:53:18;35.20;;;18.70;;
85314;SDS011;75718;50.886;11.656;2024-03-06T04:55:45;41.15;;;20.80;;
85314;SDS011;75718;50.886;11.656;2024-03-06T04:58:11;41.40;;;19.83;;
85314;SDS011;75718;50.886;11.656;2024-03-06T05:00:37;37.35;;;19.13;;
85314;SDS011;75718;50.886;11.656;2024-03-06T05:03:02;36.27;;;18.20;;
85314;SDS011;75718;50.886;11.656;2024-03-06T05:05:28;50.35;;;20.90;;
85314;SDS011;75718;50.886;11.656;2024-03-06T05:07:54;40.42;;;21.55;;
85314;SDS011;75718;50.886;11.656;2024-03-06T05:10:19;39.83;;;19.03;;
85314;SDS011;75718;50.886;11.656;2024-03-06T05:12:44;38.93;;;20.43;;
85314;SDS011;75718;50.886;11.656;2024-03-06T05:15:10;40.10;;;19.73;;
85314;SDS011;75718;50.886;11.656;2024-03-06T05:17:36;37.72;;;19.20;;
85314;SDS011;75718;50.886;11.656;2024-03-06T05:20:01;33.03;;;19.43;;
85314;SDS011;75718;50.886;11.656;2024-03-06T05:22:29;36.78;;;19.65;;
85314;SDS011;75718;50.886;11.656;2024-03-06T05:24:54;39.95;;;19.95;;
85314;SDS011;75718;50.886;11.656;2024-03-06T05:27:20;39.55;;;20.17;;
85314;SDS011;75718;50.886;11.656;2024-03-06T05:29:46;42.40;;;21.75;;
85314;SDS011;75718;50.886;11.656;2024-03-06T05:32:11;39.57;;;20.03;;
85314;SDS011;75718;50.886;11.656;2024-03-06T05:34:37;42.35;;;20.90;;
85314;SDS011;75718;50.886;11.656;2024-03-06T05:37:02;44.90;;;21.80;;
85314;SDS011;75718;50.886;11.656;2024-03-06T05:39:31;44.40;;;22.08;;
85314;SDS011;75718;50.886;11.656;2024-03-06T05:42:00;46.97;;;22.75;;
85314;SDS011;75718;50.886;11.656;2024-03-06T05:44:30;41.80;;;21.30;;
85314;SDS011;75718;50.886;11.656;2024-03-06T05:46:57;41.22;;;20.73;;
85314;SDS011;75718;50.886;11.656;2024-03-06T05:49:26;46.58;;;20.33;;
85314;SDS011;75718;50.886;11.656;2024-03-06T05:51:52;40.28;;;20.55;;
85314;SDS011;75718;50.886;11.656;2024-03-06T05:54:19;42.25;;;21.40;;
85314;SDS011;75718;50.886;11.656;2024-03-06T05:56:47;39.92;;;19.77;;
85314;SDS011;75718;50.886;11.656;2024-03-06T05:59:13;42.50;;;19.45;;
85314;SDS011;75718;50.886;11.656;2024-03-06T06:01:38;40.78;;;20.95;;
85314;SDS011;75718;50.886;11.656;2024-03-06T06:04:03;37.13;;;19.60;;
85314;SDS011;75718;50.886;11.656;2024-03-06T06:06:29;39.92;;;23.35;;
85314;SDS011;75718;50.886;11.656;2024-03-06T06:08:55;40.55;;;22.45;;
85314;SDS011;75718;50.886;11.656;2024-03-06T06:11:20;41.80;;;22.87;;
85314;SDS011;75718;50.886;11.656;2024-03-06T06:13:45;40.17;;;22.43;;
85314;SDS011;75718;50.886;11.656;2024-03-06T06:16:10;34.97;;;18.80;;
85314;SDS011;75718;50.886;11.656;2024-03-06T06:18:36;36.97;;;18.30;;
85314;SDS011;75718;50.886;11.656;2024-03-06T06:21:01;37.45;;;19.92;;
85314;SDS011;75718;50.886;11.656;2024-03-06T06:23:26;37.83;;;18.90;;
85314;SDS011;75718;50.886;11.656;2024-03-06T06:25:52;38.28;;;18.05;;
85314;SDS011;75718;50.886;11.656;2024-03-06T06:28:17;38.65;;;19.35;;
85314;SDS011;75718;50.886;11.656;2024-03-06T06:30:42;42.43;;;19.67;;
85314;SDS011;75718;50.886;11.656;2024-03-06T06:33:08;41.00;;;20.25;;
85314;SDS011;75718;50.886;11.656;2024-03-06T06:35:33;33.38;;;18.10;;
85314;SDS011;75718;50.886;11.656;2024-03-06T06:38:02;37.88;;;19.70;;
85314;SDS011;75718;50.886;11.656;2024-03-06T06:40:29;37.45;;;18.77;;
85314;SDS011;75718;50.886;11.656;2024-03-06T06:42:55;41.67;;;19.47;;
85314;SDS011;75718;50.886;11.656;2024-03-06T06:45:20;38.70;;;19.13;;
85314;SDS011;75718;50.886;11.656;2024-03-06T06:47:49;35.55;;;19.00;;
85314;SDS011;75718;50.886;11.656;2024-03-06T06:50:16;35.47;;;18.98;;
85314;SDS011;75718;50.886;11.656;2024-03-06T06:52:41;34.50;;;17.33;;
85314;SDS011;75718;50.886;11.656;2024-03-06T06:55:07;36.80;;;19.52;;
85314;SDS011;75718;50.886;11.656;2024-03-06T06:57:36;34.22;;;17.45;;
85314;SDS011;75718;50.886;11.656;2024-03-06T07:00:02;37.92;;;18.02;;
85314;SDS011;75718;50.886;11.656;2024-03-06T07:02:37;31.88;;;19.02;;
85314;SDS011;75718;50.886;11.656;2024-03-06T07:05:04;38.38;;;19.77;;
85314;SDS011;75718;50.886;11.656;2024-03-06T07:07:30;34.88;;;18.20;;
85314;SDS011;75718;50.886;11.656;2024-03-06T07:09:55;33.57;;;17.53;;
85314;SDS011;75718;50.886;11.656;2024-03-06T07:12:21;36.30;;;17.83;;
85314;SDS011;75718;50.886;11.656;2024-03-06T07:14:46;37.65;;;17.40;;
85314;SDS011;75718;50.886;11.656;2024-03-06T07:17:12;37.78;;;18.73;;
85314;SDS011;75718;50.886;11.656;2024-03-06T07:19:37;33.38;;;17.83;;
85314;SDS011;75718;50.886;11.656;2024-03-06T07:22:04;38.45;;;19.33;;
85314;SDS011;75718;50.886;11.656;2024-03-06T07:24:29;35.93;;;18.80;;
85314;SDS011;75718;50.886;11.656;2024-03-06T07:26:54;33.63;;;20.00;;
85314;SDS011;75718;50.886;11.656;2024-03-06T07:29:20;35.60;;;18.60;;
85314;SDS011;75718;50.886;11.656;2024-03-06T07:31:45;35.20;;;18.80;;
85314;SDS011;75718;50.886;11.656;2024-03-06T07:34:10;39.63;;;20.13;;
85314;SDS011;75718;50.886;11.656;2024-03-06T07:36:36;37.88;;;19.50;;
85314;SDS011;75718;50.886;11.656;2024-03-06T07:39:02;36.97;;;18.50;;
85314;SDS011;75718;50.886;11.656;2024-03-06T07:41:28;38.35;;;21.70;;
85314;SDS011;75718;50.886;11.656;2024-03-06T07:43:53;36.63;;;20.40;;
85314;SDS011;75718;50.886;11.656;2024-03-06T07:46:18;32.13;;;18.03;;
85314;SDS011;75718;50.886;11.656;2024-03-06T07:48:44;34.90;;;17.63;;
85314;SDS011;75718;50.886;11.656;2024-03-06T07:51:09;30.60;;;17.77;;
85314;SDS011;75718;50.886;11.656;2024-03-06T07:53:34;35.67;;;17.88;;
85314;SDS011;75718;50.886;11.656;2024-03-06T07:56:00;30.87;;;18.50;;
85314;SDS011;75718;50.886;11.656;2024-03-06T07:58:25;31.57;;;16.93;;
85314;SDS011;75718;50.886;11.656;2024-03-06T08:00:51;36.87;;;17.97;;
85314;SDS011;75718;50.886;11.656;2024-03-06T08:03:20;31.60;;;17.40;;
85314;SDS011;75718;50.886;11.656;2024-03-06T08:05:45;33.37;;;18.87;;
85314;SDS011;75718;50.886;11.656;2024-03-06T08:08:10;32.17;;;18.07;;
85314;SDS011;75718;50.886;11.656;2024-03-06T08:10:36;29.23;;;16.90;;
85314;SDS011;75718;50.886;11.656;2024-03-06T08:13:01;28.03;;;16.83;;
85314;SDS011;75718;50.886;11.656;2024-03-06T08:15:26;35.17;;;18.27;;
85314;SDS011;75718;50.886;11.656;2024-03-06T08:17:51;34.47;;;18.30;;
85314;SDS011;75718;50.886;11.656;2024-03-06T08:20:17;36.10;;;17.38;;
85314;SDS011;75718;50.886;11.656;2024-03-06T08:22:43;36.28;;;17.98;;
85314;SDS011;75718;50.886;11.656;2024-03-06T08:25:09;33.00;;;17.92;;
85314;SDS011;75718;50.886;11.656;2024-03-06T08:27:36;34.33;;;18.73;;
85314;SDS011;75718;50.886;11.656;2024-03-06T08:30:03;30.23;;;16.73;;
85314;SDS011;75718;50.886;11.656;2024-03-06T08:32:32;32.83;;;18.60;;
85314;SDS011;75718;50.886;11.656;2024-03-06T08:35:00;38.95;;;19.65;;
85314;SDS011;75718;50.886;11.656;2024-03-06T08:37:25;31.60;;;18.92;;
85314;SDS011;75718;50.886;11.656;2024-03-06T08:39:51;30.33;;;17.80;;
85314;SDS011;75718;50.886;11.656;2024-03-06T08:42:17;32.80;;;19.55;;
85314;SDS011;75718;50.886;11.656;2024-03-06T08:44:44;29.38;;;18.17;;
85314;SDS011;75718;50.886;11.656;2024-03-06T08:47:10;29.48;;;17.10;;
85314;SDS011;75718;50.886;11.656;2024-03-06T08:49:36;26.75;;;18.23;;
85314;SDS011;75718;50.886;11.656;2024-03-06T08:52:01;30.37;;;18.97;;
85314;SDS011;75718;50.886;11.656;2024-03-06T08:54:27;29.45;;;18.40;;
85314;SDS011;75718;50.886;11.656;2024-03-06T08:56:52;30.67;;;17.53;;
85314;SDS011;75718;50.886;11.656;2024-03-06T08:59:23;29.08;;;17.40;;
85314;SDS011;75718;50.886;11.656;2024-03-06T09:01:52;31.33;;;17.83;;
85314;SDS011;75718;50.886;11.656;2024-03-06T09:04:19;31.38;;;20.15;;
85314;SDS011;75718;50.886;11.656;2024-03-06T09:06:44;31.75;;;17.83;;
85314;SDS011;75718;50.886;11.656;2024-03-06T09:09:10;34.22;;;20.48;;
85314;SDS011;75718;50.886;11.656;2024-03-06T09:11:35;34.60;;;20.13;;
85314;SDS011;75718;50.886;11.656;2024-03-06T09:14:00;32.70;;;20.00;;
85314;SDS011;75718;50.886;11.656;2024-03-06T09:16:26;37.60;;;21.02;;
85314;SDS011;75718;50.886;11.656;2024-03-06T09:18:51;36.38;;;19.60;;
85314;SDS011;75718;50.886;11.656;2024-03-06T09:21:16;36.53;;;20.48;;
85314;SDS011;75718;50.886;11.656;2024-03-06T09:23:42;37.63;;;20.63;;
85314;SDS011;75718;50.886;11.656;2024-03-06T09:26:07;35.92;;;22.88;;
85314;SDS011;75718;50.886;11.656;2024-03-06T09:28:32;34.90;;;20.23;;
85314;SDS011;75718;50.886;11.656;2024-03-06T09:30:58;34.55;;;18.67;;
85314;SDS011;75718;50.886;11.656;2024-03-06T09:33:23;39.43;;;21.30;;
85314;SDS011;75718;50.886;11.656;2024-03-06T09:35:48;34.40;;;18.93;;
85314;SDS011;75718;50.886;11.656;2024-03-06T09:38:13;30.33;;;19.17;;
85314;SDS011;75718;50.886;11.656;2024-03-06T09:40:39;35.17;;;20.52;;
85314;SDS011;75718;50.886;11.656;2024-03-06T09:43:06;31.23;;;19.00;;
85314;SDS011;75718;50.886;11.656;2024-03-06T09:45:32;35.92;;;19.77;;
85314;SDS011;75718;50.886;11.656;2024-03-06T09:47:58;33.40;;;21.05;;
85314;SDS011;75718;50.886;11.656;2024-03-06T09:50:23;33.23;;;20.77;;
85314;SDS011;75718;50.886;11.656;2024-03-06T09:52:51;32.80;;;19.70;;
85314;SDS011;75718;50.886;11.656;2024-03-06T09:55:18;34.55;;;22.02;;
85314;SDS011;75718;50.886;11.656;2024-03-06T09:57:44;29.90;;;19.75;;
85314;SDS011;75718;50.886;11.656;2024-03-06T10:00:10;32.17;;;19.25;;
85314;SDS011;75718;50.886;11.656;2024-03-06T10:02:39;33.75;;;19.45;;
85314;SDS011;75718;50.886;11.656;2024-03-06T10:05:21;30.80;;;19.42;;
85314;SDS011;75718;50.886;11.656;2024-03-06T10:07:47;30.42;;;20.00;;
85314;SDS011;75718;50.886;11.656;2024-03-06T10:10:12;32.50;;;18.38;;
85314;SDS011;75718;50.886;11.656;2024-03-06T10:12:38;30.60;;;19.23;;
85314;SDS011;75718;50.886;11.656;2024-03-06T10:15:04;35.83;;;21.73;;
85314;SDS011;75718;50.886;11.656;2024-03-06T10:17:29;32.80;;;20.10;;
85314;SDS011;75718;50.886;11.656;2024-03-06T10:19:55;31.47;;;19.77;;
85314;SDS011;75718;50.886;11.656;2024-03-06T10:22:22;36.90;;;20.90;;
85314;SDS011;75718;50.886;11.656;2024-03-06T10:24:49;32.20;;;20.05;;
85314;SDS011;75718;50.886;11.656;2024-03-06T10:27:15;29.30;;;19.20;;
85314;SDS011;75718;50.886;11.656;2024-03-06T10:29:44;31.85;;;17.92;;
85314;SDS011;75718;50.886;11.656;2024-03-06T10:32:09;28.73;;;19.40;;
85314;SDS011;75718;50.886;11.656;2024-03-06T10:34:36;31.40;;;20.42;;
85314;SDS011;75718;50.886;11.656;2024-03-06T10:37:02;31.33;;;19.98;;
85314;SDS011;75718;50.886;11.656;2024-03-06T10:39:33;30.02;;;20.05;;
85314;SDS011;75718;50.886;11.656;2024-03-06T10:42:03;29.02;;;18.85;;
85314;SDS011;75718;50.886;11.656;2024-03-06T10:44:31;29.63;;;20.40;;
85314;SDS011;75718;50.886;11.656;2024-03-06T10:47:02;31.13;;;19.92;;
85314;SDS011;75718;50.886;11.656;2024-03-06T10:49:30;31.75;;;22.00;;
85314;SDS011;75718;50.886;11.656;2024-03-06T10:51:57;32.97;;;20.77;;
85314;SDS011;75718;50.886;11.656;2024-03-06T10:54:27;28.38;;;20.33;;
85314;SDS011;75718;50.886;11.656;2024-03-06T10:56:54;29.02;;;19.45;;
85314;SDS011;75718;50.886;11.656;2024-03-06T10:59:20;27.63;;;19.48;;
85314;SDS011;75718;50.886;11.656;2024-03-06T11:01:46;33.22;;;21.13;;
85314;SDS011;75718;50.886;11.656;2024-03-06T11:04:12;28.45;;;19.42;;
85314;SDS011;75718;50.886;11.656;2024-03-06T11:06:40;34.47;;;21.70;;
85314;SDS011;75718;50.886;11.656;2024-03-06T11:09:05;31.65;;;20.60;;
85314;SDS011;75718;50.886;11.656;2024-03-06T11:11:47;31.75;;;20.77;;
85314;SDS011;75718;50.886;11.656;2024-03-06T11:14:21;28.45;;;20.17;;
85314;SDS011;75718;50.886;11.656;2024-03-06T11:16:55;30.63;;;19.58;;
85314;SDS011;75718;50.886;11.656;2024-03-06T11:19:26;27.70;;;19.02;;
85314;SDS011;75718;50.886;11.656;2024-03-06T11:21:51;26.25;;;18.42;;
85314;SDS011;75718;50.886;11.656;2024-03-06T11:26:57;27.83;;;17.20;;
85314;SDS011;75718;50.886;11.656;2024-03-06T11:29:27;27.52;;;17.88;;
85314;SDS011;75718;50.886;11.656;2024-03-06T11:32:11;35.30;;;20.48;;
85314;SDS011;75718;50.886;11.656;2024-03-06T11:34:37;26.75;;;17.92;;
85314;SDS011;75718;50.886;11.656;2024-03-06T11:37:03;28.25;;;19.25;;
85314;SDS011;75718;50.886;11.656;2024-03-06T11:39:32;26.85;;;18.52;;
85314;SDS011;75718;50.886;11.656;2024-03-06T11:41:59;26.25;;;18.70;;
85314;SDS011;75718;50.886;11.656;2024-03-06T11:44:26;24.73;;;17.73;;
85314;SDS011;75718;50.886;11.656;2024-03-06T11:47:03;27.55;;;18.75;;
85314;SDS011;75718;50.886;11.656;2024-03-06T11:49:30;26.85;;;20.48;;
85314;SDS011;75718;50.886;11.656;2024-03-06T11:52:02;27.48;;;18.38;;
85314;SDS011;75718;50.886;11.656;2024-03-06T11:54:29;31.52;;;18.92;;
85314;SDS011;75718;50.886;11.656;2024-03-06T11:56:57;26.83;;;18.88;;
85314;SDS011;75718;50.886;11.656;2024-03-06T11:59:24;25.20;;;19.08;;
85314;SDS011;75718;50.886;11.656;2024-03-06T12:01:51;27.45;;;17.55;;
85314;SDS011;75718;50.886;11.656;2024-03-06T12:04:20;23.83;;;16.85;;
85314;SDS011;75718;50.886;11.656;2024-03-06T12:06:46;27.02;;;18.73;;
85314;SDS011;75718;50.886;11.656;2024-03-06T12:09:11;23.40;;;17.27;;
85314;SDS011;75718;50.886;11.656;2024-03-06T12:11:37;24.30;;;16.98;;
85314;SDS011;75718;50.886;11.656;2024-03-06T12:14:03;26.65;;;17.13;;
85314;SDS011;75718;50.886;11.656;2024-03-06T12:16:28;24.75;;;17.05;;
85314;SDS011;75718;50.886;11.656;2024-03-06T12:18:57;25.60;;;19.08;;
85314;SDS011;75718;50.886;11.656;2024-03-06T12:21:31;30.20;;;18.92;;
85314;SDS011;75718;50.886;11.656;2024-03-06T12:24:02;24.58;;;18.98;;
85314;SDS011;75718;50.886;11.656;2024-03-06T12:26:32;26.58;;;18.35;;
85314;SDS011;75718;50.886;11.656;2024-03-06T12:29:07;23.33;;;17.00;;
85314;SDS011;75718;50.886;11.656;2024-03-06T12:31:35;24.75;;;16.05;;
85314;SDS011;75718;50.886;11.656;2024-03-06T12:34:02;22.27;;;15.45;;
85314;SDS011;75718;50.886;11.656;2024-03-06T12:36:28;23.00;;;15.60;;
85314;SDS011;75718;50.886;11.656;2024-03-06T12:38:55;24.38;;;17.05;;
85314;SDS011;75718;50.886;11.656;2024-03-06T12:41:21;27.90;;;17.80;;
85314;SDS011;75718;50.886;11.656;2024-03-06T12:43:47;25.10;;;16.70;;
85314;SDS011;75718;50.886;11.656;2024-03-06T12:46:12;24.30;;;17.47;;
85314;SDS011;75718;50.886;11.656;2024-03-06T12:48:37;23.73;;;16.52;;
85314;SDS011;75718;50.886;11.656;2024-03-06T12:51:02;22.97;;;16.13;;
85314;SDS011;75718;50.886;11.656;2024-03-06T12:53:30;22.42;;;15.27;;
85314;SDS011;75718;50.886;11.656;2024-03-06T12:55:55;22.13;;;15.57;;
85314;SDS011;75718;50.886;11.656;2024-03-06T12:58:21;22.77;;;17.42;;
85314;SDS011;75718;50.886;11.656;2024-03-06T13:00:46;27.67;;;19.10;;
85314;SDS011;75718;50.886;11.656;2024-03-06T13:03:12;27.13;;;17.02;;
85314;SDS011;75718;50.886;11.656;2024-03-06T13:05:37;29.90;;;18.77;;
85314;SDS011;75718;50.886;11.656;2024-03-06T13:08:02;26.52;;;17.48;;
85314;SDS011;75718;50.886;11.656;2024-03-06T13:10:28;28.60;;;18.58;;
85314;SDS011;75718;50.886;11.656;2024-03-06T13:12:54;25.27;;;18.88;;
85314;SDS011;75718;50.886;11.656;2024-03-06T13:15:19;26.50;;;18.75;;
85314;SDS011;75718;50.886;11.656;2024-03-06T13:17:45;27.27;;;19.98;;
85314;SDS011;75718;50.886;11.656;2024-03-06T13:20:10;31.03;;;20.40;;
85314;SDS011;75718;50.886;11.656;2024-03-06T13:22:38;31.83;;;22.33;;
85314;SDS011;75718;50.886;11.656;2024-03-06T13:25:04;33.47;;;19.52;;
85314;SDS011;75718;50.886;11.656;2024-03-06T13:27:30;28.90;;;18.40;;
85314;SDS011;75718;50.886;11.656;2024-03-06T13:29:55;31.13;;;20.90;;
85314;SDS011;75718;50.886;11.656;2024-03-06T13:32:21;31.10;;;22.02;;
85314;SDS011;75718;50.886;11.656;2024-03-06T13:34:46;33.40;;;20.93;;
85314;SDS011;75718;50.886;11.656;2024-03-06T13:37:11;29.57;;;20.73;;
85314;SDS011;75718;50.886;11.656;2024-03-06T13:39:37;31.20;;;21.35;;
85314;SDS011;75718;50.886;11.656;2024-03-06T13:42:03;28.40;;;18.63;;
85314;SDS011;75718;50.886;11.656;2024-03-06T13:44:30;36.45;;;20.85;;
85314;SDS011;75718;50.886;11.656;2024-03-06T13:46:56;26.85;;;17.95;;
85314;SDS011;75718;50.886;11.656;2024-03-06T13:49:40;32.67;;;19.40;;
85314;SDS011;75718;50.886;11.656;2024-03-06T13:52:06;28.15;;;18.27;;
85314;SDS011;75718;50.886;11.656;2024-03-06T13:54:41;27.65;;;18.42;;
85314;SDS011;75718;50.886;11.656;2024-03-06T13:57:07;28.13;;;17.50;;
85314;SDS011;75718;50.886;11.656;2024-03-06T13:59:33;26.35;;;17.63;;
85314;SDS011;75718;50.886;11.656;2024-03-06T14:01:59;30.25;;;18.23;;
85314;SDS011;75718;50.886;11.656;2024-03-06T14:04:25;27.88;;;16.88;;
85314;SDS011;75718;50.886;11.656;2024-03-06T14:06:51;29.15;;;19.17;;